createdAt,value
2023-03-21T00:00:20.509Z,15793.22
2023-03-21T00:04:23.152Z,15795.28
2023-03-21T00:08:26.058Z,15787.09
2023-03-21T00:12:27.461Z,15793.22
2023-03-21T00:16:38.981Z,15819.81
2023-03-21T00:20:41.981Z,15834.13
2023-03-21T00:24:43.384Z,15830.03
2023-03-21T00:28:44.801Z,15872.97
2023-03-21T00:32:55.452Z,15825.94
2023-03-21T00:36:57.412Z,15813.66
2023-03-21T00:41:04.624Z,15789.13
2023-03-21T00:45:09.599Z,15764.59
2023-03-21T00:49:12.410Z,15783.00
2023-03-21T00:53:14.832Z,15789.13
2023-03-21T00:57:16.842Z,15815.72
2023-03-21T01:01:18.808Z,15756.41
2023-03-21T01:05:22.367Z,15772.78
2023-03-21T01:09:24.470Z,15789.13
2023-03-21T01:13:25.899Z,15789.13
2023-03-21T01:17:27.361Z,15813.66
2023-03-21T01:21:30.373Z,15803.44
2023-03-21T01:25:31.749Z,15778.91
2023-03-21T01:29:33.112Z,15787.09
2023-03-21T01:33:34.972Z,15809.59
2023-03-21T01:37:37.994Z,15801.41
2023-03-21T01:41:43.989Z,15801.41
2023-03-21T01:46:26.210Z,15785.03
2023-03-21T01:50:28.717Z,15830.03
2023-03-21T01:54:35.919Z,15801.41
2023-03-21T01:58:38.863Z,15789.13
2023-03-21T02:02:44.158Z,15789.13
2023-03-21T02:06:51.309Z,15830.03
2023-03-21T02:10:54.982Z,15821.84
2023-03-21T02:14:57.023Z,15817.75
2023-03-21T02:19:12.651Z,15830.03
2023-03-21T02:23:59.864Z,15813.66
2023-03-21T02:28:09.489Z,15787.09
2023-03-21T02:32:28.369Z,15783.00
2023-03-21T02:36:55.528Z,15752.34
2023-03-21T02:41:13.224Z,15752.34
2023-03-21T02:45:21.599Z,15764.59
2023-03-21T02:49:26.761Z,15766.66
2023-03-21T02:53:32.489Z,15766.66
2023-03-21T02:57:42.685Z,15778.91
2023-03-21T03:01:45.314Z,15780.97
2023-03-21T03:05:51.246Z,15783.00
2023-03-21T03:10:08.188Z,15807.53
2023-03-21T03:14:56.533Z,15807.53
2023-03-21T03:19:00.084Z,15809.59
2023-03-21T03:23:13.641Z,15813.66
2023-03-21T03:27:19.396Z,15768.69
2023-03-21T03:31:25.134Z,15780.97
2023-03-21T03:35:26.890Z,15815.72
2023-03-21T03:39:40.966Z,15799.34
2023-03-21T03:43:47.784Z,15793.22
2023-03-21T03:47:57.356Z,15789.13
2023-03-21T03:52:03.872Z,15780.97
2023-03-21T03:56:07.960Z,15813.66
2023-03-21T04:00:13.313Z,15842.28
2023-03-21T04:04:15.605Z,15858.66
2023-03-21T04:08:17.209Z,15840.25
2023-03-21T04:12:18.793Z,15827.97
2023-03-21T04:16:21.726Z,15823.91
2023-03-21T04:20:43.235Z,15830.03
2023-03-21T04:24:44.891Z,15809.59
2023-03-21T04:28:46.293Z,15807.53
2023-03-21T04:32:49.007Z,15809.59
2023-03-21T04:36:50.733Z,15825.94
2023-03-21T04:40:52.288Z,15789.13
2023-03-21T04:44:53.712Z,15848.44
2023-03-21T04:48:56.484Z,15799.34
2023-03-21T04:52:58.070Z,15805.50
2023-03-21T04:56:59.597Z,15840.25
2023-03-21T05:01:01.035Z,15842.28
2023-03-21T05:05:04.227Z,15836.16
2023-03-21T05:09:06.119Z,15834.13
2023-03-21T05:13:07.652Z,15844.34
2023-03-21T05:17:09.239Z,15821.84
2023-03-21T05:21:11.948Z,15813.66
2023-03-21T05:25:13.578Z,15803.44
2023-03-21T05:29:15.023Z,15809.59
2023-03-21T05:33:16.593Z,15789.13
2023-03-21T05:37:19.288Z,15817.75
2023-03-21T05:41:20.714Z,15811.63
2023-03-21T05:45:22.275Z,15785.03
2023-03-21T05:49:23.687Z,15748.25
2023-03-21T05:53:26.684Z,15752.34
2023-03-21T05:57:28.282Z,15774.81
2023-03-21T06:01:29.696Z,15756.41
2023-03-21T06:05:31.231Z,15754.38
2023-03-21T06:09:34.437Z,15772.78
2023-03-21T06:13:35.836Z,15758.47
2023-03-21T06:17:37.355Z,15752.34
2023-03-21T06:21:38.852Z,15799.34
2023-03-21T06:25:41.629Z,15768.69
2023-03-21T06:29:43.329Z,15772.78
2023-03-21T06:33:44.741Z,15772.78
2023-03-21T06:37:46.160Z,15768.69
2023-03-21T06:41:48.967Z,15740.06
2023-03-21T06:45:50.377Z,15699.19
2023-03-21T06:49:51.926Z,15703.25
2023-03-21T06:53:53.366Z,15705.31
2023-03-21T06:57:56.912Z,15662.38
2023-03-21T07:01:58.630Z,15701.22
2023-03-21T07:06:04.465Z,15654.19
2023-03-21T07:10:06.642Z,15639.88
2023-03-21T07:14:09.483Z,15650.09
2023-03-21T07:18:10.888Z,15637.84
2023-03-21T07:22:12.284Z,15633.75
2023-03-21T07:26:13.706Z,15603.09
2023-03-21T07:30:17.271Z,15625.56
2023-03-21T07:34:18.752Z,15633.75
2023-03-21T07:38:21.033Z,15617.41
2023-03-21T07:42:22.509Z,15617.41
2023-03-21T07:46:25.366Z,15643.97
2023-03-21T07:50:26.962Z,15617.41
2023-03-21T07:54:28.669Z,15615.34
2023-03-21T07:58:30.309Z,15629.66
2023-03-21T08:02:33.114Z,15646.03
2023-03-21T08:06:34.553Z,15613.31
2023-03-21T08:10:36.054Z,15617.41
2023-03-21T08:14:37.957Z,15635.78
2023-03-21T08:18:40.657Z,15631.72
2023-03-21T08:22:42.644Z,15596.94
2023-03-21T08:26:44.662Z,15607.16
2023-03-21T08:30:46.195Z,15596.94
2023-03-21T08:34:49.184Z,15613.31
2023-03-21T08:38:50.657Z,15592.84
2023-03-21T08:42:52.043Z,15633.75
2023-03-21T08:46:53.449Z,15566.28
2023-03-21T08:50:56.257Z,15607.16
2023-03-21T08:54:57.799Z,15609.22
2023-03-21T08:58:59.199Z,15605.13
2023-03-21T09:03:00.823Z,15609.22
2023-03-21T09:07:03.815Z,15605.13
2023-03-21T09:11:05.690Z,15629.66
2023-03-21T09:15:08.649Z,15615.34
2023-03-21T09:19:10.426Z,15670.56
2023-03-21T09:23:15.937Z,15648.06
2023-03-21T09:27:17.680Z,15648.06
2023-03-21T09:31:19.362Z,15713.50
2023-03-21T09:35:22.089Z,15662.38
2023-03-21T09:39:24.866Z,15623.53
2023-03-21T09:43:38.993Z,15658.28
2023-03-21T09:47:45.229Z,15631.72
2023-03-21T09:51:50.121Z,15629.66
2023-03-21T09:55:52.972Z,15625.56
2023-03-21T09:59:56.185Z,15605.13
2023-03-21T10:04:00.854Z,15654.19
2023-03-21T10:08:06.566Z,15611.25
2023-03-21T10:12:16.288Z,15637.84
2023-03-21T10:16:26.247Z,15621.47
2023-03-21T10:20:30.528Z,15646.03
2023-03-21T10:24:34.004Z,15613.31
2023-03-21T10:28:52.349Z,15654.19
2023-03-21T10:32:59.489Z,15639.88
2023-03-21T10:37:02.967Z,15686.91
2023-03-21T10:41:04.525Z,15725.75
2023-03-21T10:45:14.930Z,15744.16
2023-03-21T10:49:16.601Z,15731.88
2023-03-21T10:53:20.896Z,15719.63
2023-03-21T10:57:24.092Z,15703.25
2023-03-21T11:01:31.349Z,15697.13
2023-03-21T11:05:38.794Z,15695.09
2023-03-21T11:09:46.311Z,15711.44
2023-03-21T11:13:56.242Z,15715.53
2023-03-21T11:17:59.798Z,15703.25
2023-03-21T11:22:06.307Z,15670.56
2023-03-21T11:26:10.592Z,15703.25
2023-03-21T11:30:20.925Z,15699.19
2023-03-21T11:34:31.413Z,15670.56
2023-03-21T11:38:36.968Z,15676.69
2023-03-21T11:42:43.191Z,15643.97
2023-03-21T11:46:44.613Z,15643.97
2023-03-21T11:50:50.294Z,15627.63
2023-03-21T11:55:03.548Z,15646.03
2023-03-21T11:59:22.344Z,15674.63
2023-03-21T12:04:00.942Z,15650.09
2023-03-21T12:08:12.784Z,15629.66
2023-03-21T12:12:38.937Z,15633.75
2023-03-21T12:16:53.075Z,15639.88
2023-03-21T12:20:59.094Z,15674.63
2023-03-21T12:25:07.461Z,15617.41
2023-03-21T12:29:30.299Z,15637.84
2023-03-21T12:33:47.399Z,15654.19
2023-03-21T12:37:58.043Z,15670.56
2023-03-21T12:42:14.441Z,15637.84
2023-03-21T12:46:22.347Z,15684.88
2023-03-21T12:50:29.692Z,15670.56
2023-03-21T12:54:36.019Z,15721.66
2023-03-21T12:58:47.935Z,15719.63
2023-03-21T13:02:53.880Z,15752.34
2023-03-21T13:06:57.621Z,15740.06
2023-03-21T13:11:01.354Z,15770.72
2023-03-21T13:15:23.790Z,15803.44
2023-03-21T13:19:31.778Z,15797.31
2023-03-21T13:23:35.717Z,15764.59
2023-03-21T13:27:38.336Z,15780.97
2023-03-21T13:31:52.085Z,15825.94
2023-03-21T13:35:59.258Z,15776.88
2023-03-21T13:40:02.936Z,15821.84
2023-03-21T13:44:25.644Z,15817.75
2023-03-21T13:48:31.429Z,15805.50
2023-03-21T13:52:32.887Z,15842.28
2023-03-21T13:56:50.076Z,15856.59
2023-03-21T14:01:21.030Z,15842.28
2023-03-21T14:05:25.820Z,15834.13
2023-03-21T14:09:31.093Z,15813.66
2023-03-21T14:13:35.047Z,15817.75
2023-03-21T14:17:39.291Z,15813.66
2023-03-21T14:21:49.577Z,15789.13
2023-03-21T14:25:52.277Z,15842.28
2023-03-21T14:29:55.196Z,15821.84
2023-03-21T14:33:58.687Z,15830.03
2023-03-21T14:38:04.527Z,15846.38
2023-03-21T14:42:07.963Z,15819.81
2023-03-21T14:46:13.385Z,15817.75
2023-03-21T14:50:14.879Z,15862.75
2023-03-21T14:54:18.360Z,15850.47
2023-03-21T14:58:19.873Z,15917.94
2023-03-21T15:02:25.510Z,15903.63
2023-03-21T15:06:26.984Z,15893.41
2023-03-21T15:10:31.181Z,15887.28
2023-03-21T15:14:35.124Z,15885.22
2023-03-21T15:18:39.661Z,15938.41
2023-03-21T15:22:45.752Z,15920.00
2023-03-21T15:26:50.240Z,15948.63
2023-03-21T15:30:53.512Z,15967.03
2023-03-21T15:35:04.725Z,15993.59
2023-03-21T15:39:08.672Z,15997.69
2023-03-21T15:43:15.852Z,16050.84
2023-03-21T15:47:35.782Z,16075.38
2023-03-21T15:51:37.367Z,16052.91
2023-03-21T15:55:44.178Z,16042.69
2023-03-21T15:59:47.080Z,16042.69
2023-03-21T16:03:55.386Z,16048.81
2023-03-21T16:08:04.607Z,16091.75
2023-03-21T16:12:10.696Z,16030.41
2023-03-21T16:16:18.448Z,16052.91
2023-03-21T16:20:24.046Z,15997.69
2023-03-21T16:24:25.465Z,15987.47
2023-03-21T16:28:26.897Z,15981.34
2023-03-21T16:32:29.955Z,15987.47
2023-03-21T16:36:33.795Z,15985.41
2023-03-21T16:40:37.686Z,15981.34
2023-03-21T16:44:40.315Z,15999.72
2023-03-21T16:48:45.259Z,15979.28
2023-03-21T16:52:46.654Z,15985.41
2023-03-21T16:56:50.745Z,15997.69
2023-03-21T17:00:52.437Z,15956.78
2023-03-21T17:04:55.358Z,16046.75
2023-03-21T17:08:57.922Z,16048.81
2023-03-21T17:12:59.701Z,16018.13
2023-03-21T17:17:01.343Z,15997.69
2023-03-21T17:21:11.738Z,16001.78
2023-03-21T17:25:13.581Z,15995.66
2023-03-21T17:29:15.532Z,15973.16
2023-03-21T17:33:17.241Z,15991.56
2023-03-21T17:37:20.368Z,15956.78
2023-03-21T17:41:21.820Z,16007.91
2023-03-21T17:45:26.223Z,15940.44
2023-03-21T17:49:27.812Z,15962.94
2023-03-21T17:53:31.176Z,15956.78
2023-03-21T17:57:32.834Z,15936.34
2023-03-21T18:01:34.585Z,15987.47
2023-03-21T18:05:36.058Z,15991.56
2023-03-21T18:09:38.858Z,16001.78
2023-03-21T18:13:40.882Z,15995.66
2023-03-21T18:17:43.458Z,16001.78
2023-03-21T18:21:45.892Z,16009.97
2023-03-21T18:25:49.224Z,15977.25
2023-03-21T18:34:11.958Z,15952.72
2023-03-21T18:38:13.799Z,15971.09
2023-03-21T18:42:19.038Z,15942.47
2023-03-21T18:46:24.508Z,15922.03
2023-03-21T18:50:26.213Z,15954.75
2023-03-21T18:54:28.673Z,15960.88
2023-03-21T18:58:31.524Z,15944.53
2023-03-21T19:02:33.400Z,15920.00
2023-03-21T19:06:34.962Z,15932.25
2023-03-21T19:10:37.040Z,15969.06
2023-03-21T19:14:40.196Z,15938.41
2023-03-21T19:18:57.652Z,15913.84
2023-03-21T19:22:59.216Z,15895.47
2023-03-21T19:27:00.602Z,15928.16
2023-03-21T19:31:05.499Z,15964.97
2023-03-21T19:35:07.551Z,15913.84
2023-03-21T19:39:09.832Z,15911.81
2023-03-21T19:43:31.870Z,15903.63
2023-03-21T19:47:34.392Z,15903.63
2023-03-21T19:51:36.215Z,15915.91
2023-03-21T19:55:37.942Z,15907.72
2023-03-21T19:59:39.382Z,15909.78
2023-03-21T20:03:42.755Z,15887.28
2023-03-21T20:07:44.227Z,15870.91
2023-03-21T20:11:45.667Z,15866.84
2023-03-21T20:15:48.259Z,15887.28
2023-03-21T20:19:51.209Z,15903.63
2023-03-21T20:23:52.780Z,15866.84
2023-03-21T20:28:12.663Z,15870.91
2023-03-21T20:32:15.878Z,15862.75
2023-03-21T20:36:38.061Z,15821.84
2023-03-21T20:40:40.976Z,15842.28
2023-03-21T20:44:57.136Z,15768.69
2023-03-21T20:48:59.611Z,15817.75
2023-03-21T20:53:07.360Z,15811.63
2023-03-21T20:57:09.307Z,15821.84
2023-03-21T21:01:10.891Z,15830.03
2023-03-21T21:05:25.316Z,15821.84
2023-03-21T21:09:30.469Z,15834.13
2023-03-21T21:13:31.890Z,15746.19
2023-03-21T21:18:02.088Z,15776.88
2023-03-21T21:21:54.732Z,15768.69
2023-03-21T21:25:57.764Z,15774.81
2023-03-21T21:29:59.339Z,15748.25
2023-03-21T21:34:01.004Z,15748.25
2023-03-21T21:38:02.554Z,15746.19
2023-03-21T21:42:05.570Z,15715.53
2023-03-21T21:46:07.222Z,15752.34
2023-03-21T21:50:09.214Z,15691.00
2023-03-21T21:54:10.646Z,15699.19
2023-03-21T21:58:13.385Z,15703.25
2023-03-21T22:02:14.776Z,15695.09
2023-03-21T22:06:16.186Z,15684.88
2023-03-21T22:10:18.507Z,15686.91
2023-03-21T22:14:21.531Z,15672.59
2023-03-21T22:18:23.090Z,15676.69
2023-03-21T22:22:24.879Z,15672.59
2023-03-21T22:26:26.349Z,15670.56
2023-03-21T22:30:29.517Z,15701.22
2023-03-21T22:34:30.970Z,15670.56
2023-03-21T22:38:32.386Z,15643.97
2023-03-21T22:42:34.203Z,15709.41
2023-03-21T22:46:37.175Z,15691.00
2023-03-21T22:50:38.852Z,15719.63
2023-03-21T22:54:40.558Z,15717.56
2023-03-21T22:58:41.998Z,15693.03
2023-03-21T23:02:44.749Z,15752.34
2023-03-21T23:06:46.184Z,15744.16
2023-03-21T23:10:47.657Z,15688.94
2023-03-21T23:14:49.205Z,15713.50
2023-03-21T23:18:52.224Z,15740.06
2023-03-21T23:22:55.415Z,15711.44
2023-03-21T23:26:56.835Z,15693.03
2023-03-21T23:30:58.297Z,15713.50
2023-03-21T23:35:01.060Z,15684.88
2023-03-21T23:39:02.493Z,15699.19
2023-03-21T23:43:04.117Z,15699.19
2023-03-21T23:47:05.845Z,15715.53
2023-03-21T23:51:09.088Z,15731.88
2023-03-21T23:55:10.691Z,15693.03
2023-03-21T23:59:12.333Z,15715.53
